UAL561 KORD-KMCI
Flight info
| Callsign | UAL561 |
|---|---|
| Flight time | 1h 5m |
| Altitude | 34000 |
| Route | PEKUE PIGGG QUANE CARET BULET RUDDH3 |
| Aircraft | B38M/M-SDE1FGHILORVWXY/HB1 |
Departure
| Time | 2026-04-30 11:42 |
|---|---|
| Airport | Chicago O'Hare International Airport (KORD) |
Arrival
| Time | 2026-04-30 12:47 |
|---|---|
| Airport | Kansas City International Airport (KMCI) |
| Time | Latitude | Longitude | Altitude | Speed | Heading |
|---|---|---|---|---|---|
| 2026-04-30 11:27 | 41.98091 | -87.91029 | 671 ft | 0 kts | 134° |
| 2026-04-30 11:34 | 41.98093 | -87.91031 | 671 ft | 2 kts | 134° |
| 2026-04-30 11:34 | 41.98111 | -87.91056 | 669 ft | 3 kts | 134° |
| 2026-04-30 11:35 | 41.98125 | -87.91078 | 669 ft | 4 kts | 119° |
| 2026-04-30 11:35 | 41.98130 | -87.91109 | 668 ft | 4 kts | 73° |
| 2026-04-30 11:35 | 41.98116 | -87.91133 | 667 ft | 4 kts | 34° |
| 2026-04-30 11:35 | 41.98101 | -87.91147 | 668 ft | 0 kts | 34° |
| 2026-04-30 11:38 | 41.98124 | -87.91124 | 671 ft | 13 kts | 38° |
| 2026-04-30 11:38 | 41.98214 | -87.90966 | 671 ft | 27 kts | 63° |
| 2026-04-30 11:39 | 41.98280 | -87.90722 | 670 ft | 29 kts | 81° |
| 2026-04-30 11:39 | 41.98288 | -87.90458 | 670 ft | 27 kts | 90° |
| 2026-04-30 11:39 | 41.98288 | -87.90219 | 671 ft | 26 kts | 90° |
| 2026-04-30 11:39 | 41.98289 | -87.89970 | 672 ft | 27 kts | 89° |
| 2026-04-30 11:40 | 41.98288 | -87.89717 | 672 ft | 28 kts | 90° |
| 2026-04-30 11:40 | 41.98289 | -87.89454 | 672 ft | 29 kts | 89° |
| 2026-04-30 11:40 | 41.98289 | -87.89183 | 671 ft | 29 kts | 90° |
| 2026-04-30 11:40 | 41.98289 | -87.88963 | 671 ft | 11 kts | 86° |
| 2026-04-30 11:41 | 41.98352 | -87.88920 | 669 ft | 13 kts | 348° |
| 2026-04-30 11:41 | 41.98389 | -87.89019 | 670 ft | 13 kts | 270° |
| 2026-04-30 11:41 | 41.98389 | -87.89290 | 671 ft | 66 kts | 270° |
| 2026-04-30 11:41 | 41.98389 | -87.90283 | 670 ft | 144 kts | 270° |
| 2026-04-30 11:42 | 41.98383 | -87.91873 | 959 ft | 187 kts | 270° |
| 2026-04-30 11:42 | 41.98367 | -87.93693 | 1855 ft | 206 kts | 269° |
| 2026-04-30 11:42 | 41.98138 | -87.95601 | 2816 ft | 211 kts | 252° |
| 2026-04-30 11:42 | 41.97577 | -87.97519 | 3324 ft | 230 kts | 252° |
| 2026-04-30 11:43 | 41.97023 | -87.99593 | 4046 ft | 238 kts | 255° |
| 2026-04-30 11:43 | 41.96508 | -88.01691 | 5115 ft | 238 kts | 257° |
| 2026-04-30 11:43 | 41.96006 | -88.03881 | 5826 ft | 253 kts | 258° |
| 2026-04-30 11:43 | 41.95502 | -88.06171 | 6752 ft | 255 kts | 259° |
| 2026-04-30 11:44 | 41.95009 | -88.08454 | 7763 ft | 256 kts | 260° |
| 2026-04-30 11:44 | 41.94516 | -88.10766 | 8710 ft | 258 kts | 261° |
| 2026-04-30 11:44 | 41.94025 | -88.13096 | 9669 ft | 260 kts | 261° |
| 2026-04-30 11:44 | 41.93529 | -88.15458 | 10448 ft | 268 kts | 261° |
| 2026-04-30 11:45 | 41.93008 | -88.17952 | 10850 ft | 288 kts | 261° |
| 2026-04-30 11:45 | 41.92446 | -88.20640 | 11189 ft | 308 kts | 260° |
| 2026-04-30 11:45 | 41.91850 | -88.23475 | 11634 ft | 323 kts | 259° |
| 2026-04-30 11:45 | 41.91234 | -88.26403 | 12363 ft | 327 kts | 259° |
| 2026-04-30 11:46 | 41.90611 | -88.29365 | 13125 ft | 332 kts | 259° |
| 2026-04-30 11:46 | 41.89978 | -88.32373 | 13889 ft | 337 kts | 258° |
| 2026-04-30 11:46 | 41.89338 | -88.35414 | 14578 ft | 340 kts | 258° |
| 2026-04-30 11:46 | 41.88692 | -88.38478 | 15320 ft | 342 kts | 258° |
| 2026-04-30 11:47 | 41.88040 | -88.41563 | 16052 ft | 345 kts | 258° |
| 2026-04-30 11:47 | 41.87383 | -88.44669 | 16769 ft | 348 kts | 258° |
| 2026-04-30 11:47 | 41.86719 | -88.47802 | 17489 ft | 350 kts | 258° |
| 2026-04-30 11:47 | 41.86050 | -88.50955 | 18190 ft | 353 kts | 258° |
| 2026-04-30 11:48 | 41.85384 | -88.54086 | 18799 ft | 355 kts | 258° |
| 2026-04-30 11:48 | 41.84704 | -88.57281 | 19397 ft | 357 kts | 258° |
| 2026-04-30 11:48 | 41.84019 | -88.60491 | 20003 ft | 359 kts | 258° |
| 2026-04-30 11:48 | 41.83330 | -88.63717 | 20605 ft | 361 kts | 258° |
| 2026-04-30 11:49 | 41.82636 | -88.66964 | 21193 ft | 363 kts | 258° |
| 2026-04-30 11:49 | 41.81938 | -88.70223 | 21772 ft | 365 kts | 258° |
| 2026-04-30 11:49 | 41.81234 | -88.73505 | 22335 ft | 367 kts | 258° |
| 2026-04-30 11:49 | 41.80527 | -88.76797 | 22890 ft | 369 kts | 258° |
| 2026-04-30 11:50 | 41.79818 | -88.80119 | 23444 ft | 371 kts | 259° |
| 2026-04-30 11:50 | 41.79374 | -88.83512 | 23905 ft | 371 kts | 264° |
| 2026-04-30 11:50 | 41.78963 | -88.86937 | 24349 ft | 373 kts | 264° |
| 2026-04-30 11:50 | 41.78533 | -88.90371 | 24814 ft | 374 kts | 264° |
| 2026-04-30 11:51 | 41.78090 | -88.93814 | 25252 ft | 376 kts | 264° |
| 2026-04-30 11:51 | 41.77640 | -88.97273 | 25683 ft | 378 kts | 264° |
| 2026-04-30 11:51 | 41.77184 | -89.00749 | 26116 ft | 380 kts | 264° |
| 2026-04-30 11:51 | 41.76725 | -89.04234 | 26537 ft | 381 kts | 264° |
| 2026-04-30 11:52 | 41.76262 | -89.07739 | 26954 ft | 383 kts | 264° |
| 2026-04-30 11:52 | 41.75796 | -89.11262 | 27363 ft | 385 kts | 264° |
| 2026-04-30 11:52 | 41.75315 | -89.14790 | 27765 ft | 387 kts | 261° |
| 2026-04-30 11:52 | 41.74331 | -89.18186 | 28225 ft | 395 kts | 249° |
| 2026-04-30 11:53 | 41.73136 | -89.21501 | 28616 ft | 396 kts | 251° |
| 2026-04-30 11:53 | 41.71939 | -89.24840 | 28955 ft | 399 kts | 250° |
| 2026-04-30 11:53 | 41.70723 | -89.28183 | 29338 ft | 401 kts | 250° |
| 2026-04-30 11:53 | 41.69494 | -89.31533 | 29698 ft | 402 kts | 250° |
| 2026-04-30 11:54 | 41.68252 | -89.34903 | 30098 ft | 403 kts | 250° |
| 2026-04-30 11:54 | 41.67012 | -89.38259 | 30532 ft | 402 kts | 250° |
| 2026-04-30 11:54 | 41.65775 | -89.41602 | 30902 ft | 401 kts | 250° |
| 2026-04-30 11:54 | 41.64536 | -89.44949 | 31253 ft | 401 kts | 250° |
| 2026-04-30 11:55 | 41.63296 | -89.48292 | 31617 ft | 401 kts | 250° |
| 2026-04-30 11:55 | 41.62059 | -89.51624 | 31952 ft | 401 kts | 250° |
| 2026-04-30 11:55 | 41.60812 | -89.54980 | 32110 ft | 403 kts | 250° |
| 2026-04-30 11:55 | 41.59568 | -89.58323 | 32108 ft | 401 kts | 250° |
| 2026-04-30 11:56 | 41.57507 | -89.63855 | 32109 ft | 400 kts | 250° |
| 2026-04-30 11:56 | 41.55026 | -89.70499 | 32105 ft | 400 kts | 250° |
| 2026-04-30 11:57 | 41.52408 | -89.77069 | 32111 ft | 402 kts | 248° |
| 2026-04-30 11:57 | 41.49708 | -89.83588 | 32106 ft | 401 kts | 248° |
| 2026-04-30 11:58 | 41.47014 | -89.90104 | 32105 ft | 401 kts | 248° |
| 2026-04-30 11:58 | 41.44320 | -89.96609 | 32101 ft | 401 kts | 248° |
| 2026-04-30 11:59 | 41.41621 | -90.03110 | 32100 ft | 400 kts | 248° |
| 2026-04-30 11:59 | 41.38923 | -90.09597 | 32102 ft | 400 kts | 248° |
| 2026-04-30 12:00 | 41.36240 | -90.16030 | 32098 ft | 400 kts | 248° |
| 2026-04-30 12:00 | 41.33541 | -90.22492 | 32096 ft | 399 kts | 248° |
| 2026-04-30 12:01 | 41.30838 | -90.28947 | 32099 ft | 399 kts | 248° |
| 2026-04-30 12:01 | 41.28118 | -90.35430 | 32097 ft | 399 kts | 248° |
| 2026-04-30 12:02 | 41.25432 | -90.41817 | 32101 ft | 398 kts | 248° |
| 2026-04-30 12:02 | 41.22725 | -90.48240 | 32096 ft | 398 kts | 247° |
| 2026-04-30 12:03 | 41.18664 | -90.57851 | 32097 ft | 398 kts | 247° |
| 2026-04-30 12:04 | 41.15953 | -90.64250 | 32110 ft | 398 kts | 247° |
| 2026-04-30 12:04 | 41.13237 | -90.70645 | 32108 ft | 398 kts | 247° |
| 2026-04-30 12:05 | 41.10518 | -90.77037 | 32108 ft | 398 kts | 247° |
| 2026-04-30 12:05 | 41.07793 | -90.83427 | 32102 ft | 398 kts | 247° |
| 2026-04-30 12:06 | 41.05060 | -90.89824 | 32099 ft | 399 kts | 247° |
| 2026-04-30 12:06 | 41.02321 | -90.96219 | 32104 ft | 399 kts | 247° |
| 2026-04-30 12:07 | 40.99578 | -91.02612 | 32107 ft | 399 kts | 247° |
| 2026-04-30 12:07 | 40.96831 | -91.08999 | 32110 ft | 400 kts | 247° |
| 2026-04-30 12:08 | 40.94077 | -91.15392 | 32108 ft | 400 kts | 246° |
| 2026-04-30 12:08 | 40.91318 | -91.21781 | 32112 ft | 400 kts | 246° |
| 2026-04-30 12:09 | 40.88553 | -91.28168 | 32112 ft | 400 kts | 246° |
| 2026-04-30 12:09 | 40.85803 | -91.34511 | 32113 ft | 400 kts | 246° |
| 2026-04-30 12:10 | 40.83032 | -91.40889 | 32117 ft | 400 kts | 246° |
| 2026-04-30 12:10 | 40.80260 | -91.47259 | 32115 ft | 400 kts | 246° |
| 2026-04-30 12:11 | 40.77260 | -91.53468 | 32117 ft | 406 kts | 238° |
| 2026-04-30 12:11 | 40.73768 | -91.59331 | 32115 ft | 406 kts | 239° |
| 2026-04-30 12:12 | 40.70274 | -91.65188 | 32112 ft | 406 kts | 239° |
| 2026-04-30 12:12 | 40.66783 | -91.71027 | 32113 ft | 406 kts | 239° |
| 2026-04-30 12:13 | 40.63292 | -91.76855 | 32113 ft | 406 kts | 238° |
| 2026-04-30 12:13 | 40.59788 | -91.82693 | 32116 ft | 406 kts | 238° |
| 2026-04-30 12:14 | 40.56288 | -91.88515 | 32114 ft | 406 kts | 238° |
| 2026-04-30 12:14 | 40.52782 | -91.94334 | 32116 ft | 406 kts | 238° |
| 2026-04-30 12:15 | 40.49309 | -92.00089 | 32117 ft | 406 kts | 238° |
| 2026-04-30 12:15 | 40.45796 | -92.05898 | 32117 ft | 406 kts | 238° |
| 2026-04-30 12:16 | 40.42277 | -92.11707 | 32121 ft | 407 kts | 238° |
| 2026-04-30 12:16 | 40.38776 | -92.17475 | 32122 ft | 407 kts | 238° |
| 2026-04-30 12:17 | 40.33480 | -92.26182 | 32125 ft | 407 kts | 238° |
| 2026-04-30 12:17 | 40.29943 | -92.31982 | 32125 ft | 407 kts | 238° |
| 2026-04-30 12:18 | 40.26404 | -92.37775 | 32133 ft | 408 kts | 238° |
| 2026-04-30 12:18 | 40.22860 | -92.43566 | 32133 ft | 408 kts | 238° |
| 2026-04-30 12:19 | 40.19309 | -92.49357 | 32129 ft | 408 kts | 238° |
| 2026-04-30 12:19 | 40.15757 | -92.55141 | 32133 ft | 408 kts | 238° |
| 2026-04-30 12:20 | 40.12551 | -92.61156 | 32115 ft | 394 kts | 250° |
| 2026-04-30 12:20 | 40.11347 | -92.64331 | 31614 ft | 389 kts | 248° |
| 2026-04-30 12:20 | 40.10137 | -92.67473 | 31110 ft | 385 kts | 249° |
| 2026-04-30 12:21 | 40.08952 | -92.70572 | 30713 ft | 382 kts | 249° |
| 2026-04-30 12:21 | 40.07752 | -92.73714 | 30442 ft | 391 kts | 248° |
| 2026-04-30 12:21 | 40.06530 | -92.76917 | 29935 ft | 395 kts | 249° |
| 2026-04-30 12:21 | 40.05309 | -92.80115 | 29347 ft | 393 kts | 249° |
| 2026-04-30 12:22 | 40.04095 | -92.83290 | 28778 ft | 389 kts | 249° |
| 2026-04-30 12:22 | 40.02891 | -92.86437 | 28239 ft | 386 kts | 249° |
| 2026-04-30 12:22 | 40.01697 | -92.89552 | 27693 ft | 382 kts | 249° |
| 2026-04-30 12:22 | 40.00516 | -92.92632 | 27162 ft | 378 kts | 249° |
| 2026-04-30 12:23 | 39.99343 | -92.95689 | 26637 ft | 375 kts | 250° |
| 2026-04-30 12:23 | 39.98180 | -92.98715 | 26130 ft | 372 kts | 250° |
| 2026-04-30 12:23 | 39.97028 | -93.01708 | 25623 ft | 367 kts | 250° |
| 2026-04-30 12:23 | 39.95888 | -93.04669 | 25128 ft | 364 kts | 250° |
| 2026-04-30 12:24 | 39.94757 | -93.07605 | 24650 ft | 361 kts | 250° |
| 2026-04-30 12:24 | 39.93635 | -93.10513 | 24161 ft | 358 kts | 250° |
| 2026-04-30 12:24 | 39.92521 | -93.13397 | 23686 ft | 355 kts | 251° |
| 2026-04-30 12:24 | 39.91428 | -93.16222 | 23141 ft | 353 kts | 251° |
| 2026-04-30 12:25 | 39.90315 | -93.19097 | 22645 ft | 349 kts | 251° |
| 2026-04-30 12:25 | 39.89243 | -93.21867 | 22185 ft | 345 kts | 250° |
| 2026-04-30 12:25 | 39.88167 | -93.24641 | 21742 ft | 342 kts | 250° |
| 2026-04-30 12:25 | 39.87101 | -93.27389 | 21307 ft | 338 kts | 250° |
| 2026-04-30 12:26 | 39.86045 | -93.30109 | 20867 ft | 336 kts | 250° |
| 2026-04-30 12:26 | 39.84995 | -93.32811 | 20437 ft | 335 kts | 250° |
| 2026-04-30 12:26 | 39.83932 | -93.35546 | 19997 ft | 341 kts | 250° |
| 2026-04-30 12:26 | 39.82836 | -93.38301 | 19467 ft | 343 kts | 249° |
| 2026-04-30 12:27 | 39.81739 | -93.41047 | 19060 ft | 340 kts | 249° |
| 2026-04-30 12:27 | 39.80651 | -93.43770 | 18658 ft | 338 kts | 249° |
| 2026-04-30 12:27 | 39.79572 | -93.46472 | 18224 ft | 336 kts | 249° |
| 2026-04-30 12:27 | 39.78498 | -93.49157 | 17776 ft | 333 kts | 249° |
| 2026-04-30 12:28 | 39.77432 | -93.51822 | 17356 ft | 330 kts | 249° |
| 2026-04-30 12:28 | 39.76372 | -93.54469 | 16884 ft | 331 kts | 248° |
| 2026-04-30 12:28 | 39.75300 | -93.57142 | 16443 ft | 335 kts | 248° |
| 2026-04-30 12:28 | 39.74216 | -93.59846 | 16033 ft | 338 kts | 248° |
| 2026-04-30 12:29 | 39.73128 | -93.62555 | 15637 ft | 338 kts | 248° |
| 2026-04-30 12:29 | 39.72042 | -93.65258 | 15240 ft | 337 kts | 247° |
| 2026-04-30 12:29 | 39.70956 | -93.67956 | 14841 ft | 336 kts | 247° |
| 2026-04-30 12:29 | 39.69873 | -93.70647 | 14458 ft | 335 kts | 247° |
| 2026-04-30 12:30 | 39.68795 | -93.73322 | 14067 ft | 335 kts | 247° |
| 2026-04-30 12:30 | 39.67718 | -93.75993 | 13648 ft | 334 kts | 246° |
| 2026-04-30 12:30 | 39.66642 | -93.78658 | 13225 ft | 332 kts | 246° |
| 2026-04-30 12:30 | 39.65570 | -93.81313 | 12834 ft | 332 kts | 246° |
| 2026-04-30 12:31 | 39.64500 | -93.83958 | 12449 ft | 331 kts | 246° |
| 2026-04-30 12:31 | 39.63434 | -93.86595 | 12081 ft | 330 kts | 246° |
| 2026-04-30 12:31 | 39.62446 | -93.89273 | 11872 ft | 329 kts | 249° |
| 2026-04-30 12:31 | 39.61476 | -93.91955 | 11712 ft | 328 kts | 248° |
| 2026-04-30 12:32 | 39.60514 | -93.94597 | 11554 ft | 319 kts | 248° |
| 2026-04-30 12:32 | 39.59582 | -93.97151 | 11405 ft | 309 kts | 248° |
| 2026-04-30 12:32 | 39.58675 | -93.99631 | 11254 ft | 300 kts | 248° |
| 2026-04-30 12:32 | 39.57794 | -94.02037 | 11107 ft | 291 kts | 248° |
| 2026-04-30 12:33 | 39.56939 | -94.04368 | 10969 ft | 282 kts | 248° |
| 2026-04-30 12:33 | 39.56110 | -94.06630 | 10831 ft | 274 kts | 248° |
| 2026-04-30 12:33 | 39.55305 | -94.08820 | 10700 ft | 265 kts | 249° |
| 2026-04-30 12:33 | 39.54515 | -94.10973 | 10566 ft | 265 kts | 249° |
| 2026-04-30 12:34 | 39.53721 | -94.13132 | 10434 ft | 265 kts | 248° |
| 2026-04-30 12:34 | 39.52799 | -94.15213 | 10283 ft | 269 kts | 237° |
| 2026-04-30 12:34 | 39.51683 | -94.17153 | 10149 ft | 269 kts | 238° |
| 2026-04-30 12:34 | 39.50586 | -94.19109 | 10016 ft | 268 kts | 238° |
| 2026-04-30 12:35 | 39.49498 | -94.21074 | 9879 ft | 268 kts | 238° |
| 2026-04-30 12:35 | 39.48420 | -94.23039 | 9741 ft | 267 kts | 239° |
| 2026-04-30 12:35 | 39.47347 | -94.25003 | 9610 ft | 267 kts | 239° |
| 2026-04-30 12:35 | 39.46279 | -94.26966 | 9474 ft | 267 kts | 239° |
| 2026-04-30 12:36 | 39.45213 | -94.28928 | 9340 ft | 266 kts | 239° |
| 2026-04-30 12:36 | 39.44150 | -94.30883 | 9230 ft | 266 kts | 239° |
| 2026-04-30 12:36 | 39.43087 | -94.32839 | 9075 ft | 265 kts | 239° |
| 2026-04-30 12:36 | 39.42027 | -94.34790 | 8955 ft | 265 kts | 239° |
| 2026-04-30 12:37 | 39.40967 | -94.36737 | 8822 ft | 265 kts | 238° |
| 2026-04-30 12:37 | 39.39923 | -94.38654 | 8687 ft | 264 kts | 238° |
| 2026-04-30 12:37 | 39.38867 | -94.40595 | 8562 ft | 264 kts | 238° |
| 2026-04-30 12:37 | 39.37810 | -94.42535 | 8432 ft | 264 kts | 238° |
| 2026-04-30 12:38 | 39.36753 | -94.44465 | 8291 ft | 263 kts | 238° |
| 2026-04-30 12:38 | 39.35691 | -94.46393 | 8149 ft | 263 kts | 238° |
| 2026-04-30 12:38 | 39.34633 | -94.48314 | 8024 ft | 263 kts | 238° |
| 2026-04-30 12:38 | 39.33572 | -94.50239 | 7897 ft | 263 kts | 238° |
| 2026-04-30 12:39 | 39.32515 | -94.52154 | 7751 ft | 260 kts | 238° |
| 2026-04-30 12:39 | 39.31483 | -94.54023 | 7621 ft | 251 kts | 238° |
| 2026-04-30 12:39 | 39.30485 | -94.55831 | 7501 ft | 243 kts | 238° |
| 2026-04-30 12:39 | 39.29521 | -94.57576 | 7381 ft | 234 kts | 238° |
| 2026-04-30 12:40 | 39.28435 | -94.59103 | 7236 ft | 233 kts | 216° |
| 2026-04-30 12:40 | 39.26926 | -94.59878 | 7150 ft | 231 kts | 198° |
| 2026-04-30 12:40 | 39.25409 | -94.60381 | 7096 ft | 220 kts | 198° |
| 2026-04-30 12:40 | 39.23957 | -94.60848 | 6907 ft | 212 kts | 197° |
| 2026-04-30 12:41 | 39.22529 | -94.61297 | 6606 ft | 211 kts | 197° |
| 2026-04-30 12:41 | 39.21107 | -94.61735 | 6284 ft | 209 kts | 196° |
| 2026-04-30 12:41 | 39.19701 | -94.62165 | 5980 ft | 206 kts | 196° |
| 2026-04-30 12:41 | 39.18320 | -94.62580 | 5695 ft | 202 kts | 195° |
| 2026-04-30 12:42 | 39.16969 | -94.62993 | 5441 ft | 197 kts | 198° |
| 2026-04-30 12:42 | 39.15710 | -94.63606 | 5171 ft | 191 kts | 211° |
| 2026-04-30 12:42 | 39.14676 | -94.64618 | 4893 ft | 183 kts | 230° |
| 2026-04-30 12:42 | 39.13986 | -94.65945 | 4623 ft | 177 kts | 247° |
| 2026-04-30 12:43 | 39.13636 | -94.67458 | 4401 ft | 176 kts | 263° |
| 2026-04-30 12:43 | 39.13628 | -94.69014 | 4200 ft | 175 kts | 278° |
| 2026-04-30 12:43 | 39.13961 | -94.70523 | 3970 ft | 175 kts | 294° |
| 2026-04-30 12:43 | 39.14597 | -94.71844 | 3740 ft | 175 kts | 309° |
| 2026-04-30 12:44 | 39.15495 | -94.72907 | 3511 ft | 176 kts | 324° |
| 2026-04-30 12:44 | 39.16204 | -94.73411 | 3371 ft | 177 kts | 335° |
| 2026-04-30 12:44 | 39.17761 | -94.73845 | 3085 ft | 170 kts | 359° |
| 2026-04-30 12:44 | 39.18901 | -94.73663 | 2890 ft | 162 kts | 11° |
| 2026-04-30 12:45 | 39.19965 | -94.73322 | 2770 ft | 156 kts | 12° |
| 2026-04-30 12:45 | 39.21018 | -94.73002 | 2542 ft | 155 kts | 11° |
| 2026-04-30 12:45 | 39.21727 | -94.72795 | 2402 ft | 155 kts | 11° |
| 2026-04-30 12:45 | 39.22768 | -94.72485 | 2190 ft | 156 kts | 11° |
| 2026-04-30 12:46 | 39.23755 | -94.72196 | 2000 ft | 156 kts | 11° |
| 2026-04-30 12:46 | 39.24811 | -94.71885 | 1752 ft | 154 kts | 11° |
| 2026-04-30 12:46 | 39.25846 | -94.71579 | 1535 ft | 151 kts | 11° |
| 2026-04-30 12:46 | 39.26860 | -94.71280 | 1333 ft | 148 kts | 11° |
| 2026-04-30 12:47 | 39.27847 | -94.70983 | 1141 ft | 147 kts | 12° |
| 2026-04-30 12:47 | 39.28829 | -94.70700 | 1018 ft | 136 kts | 13° |
| 2026-04-30 12:47 | 39.29554 | -94.70485 | 1017 ft | 63 kts | 13° |
| 2026-04-30 12:47 | 39.29766 | -94.70472 | 1017 ft | 14 kts | 344° |
| 2026-04-30 12:48 | 39.29822 | -94.70511 | 1017 ft | 12 kts | 319° |
| 2026-04-30 12:48 | 39.29869 | -94.70608 | 1017 ft | 9 kts | 272° |
| 2026-04-30 12:48 | 39.29824 | -94.70664 | 1017 ft | 11 kts | 194° |
| 2026-04-30 12:48 | 39.29745 | -94.70688 | 1017 ft | 13 kts | 192° |
| 2026-04-30 12:49 | 39.29643 | -94.70718 | 1017 ft | 20 kts | 193° |
| 2026-04-30 12:49 | 39.29489 | -94.70764 | 1017 ft | 24 kts | 193° |
| 2026-04-30 12:49 | 39.29317 | -94.70815 | 1017 ft | 26 kts | 193° |
| 2026-04-30 12:49 | 39.29158 | -94.70886 | 1017 ft | 22 kts | 240° |
| 2026-04-30 12:50 | 39.29167 | -94.71080 | 1017 ft | 22 kts | 276° |
| 2026-04-30 12:50 | 39.29182 | -94.71286 | 1017 ft | 24 kts | 275° |
| 2026-04-30 12:50 | 39.29201 | -94.71503 | 1017 ft | 25 kts | 275° |
| 2026-04-30 12:50 | 39.29220 | -94.71730 | 1017 ft | 26 kts | 276° |
| 2026-04-30 12:51 | 39.29240 | -94.71968 | 1017 ft | 27 kts | 276° |
| 2026-04-30 12:51 | 39.29262 | -94.72216 | 1017 ft | 28 kts | 276° |
| 2026-04-30 12:51 | 39.29282 | -94.72474 | 1017 ft | 29 kts | 276° |
| 2026-04-30 12:51 | 39.29329 | -94.72655 | 1017 ft | 9 kts | 350° |
| 2026-04-30 12:52 | 39.29411 | -94.72636 | 1017 ft | 18 kts | 13° |
| 2026-04-30 12:52 | 39.29559 | -94.72592 | 1017 ft | 24 kts | 13° |
| 2026-04-30 12:52 | 39.29730 | -94.72542 | 1017 ft | 26 kts | 12° |
| 2026-04-30 12:52 | 39.29909 | -94.72486 | 1017 ft | 27 kts | 12° |
| 2026-04-30 12:53 | 39.30095 | -94.72433 | 1017 ft | 27 kts | 12° |
| 2026-04-30 12:53 | 39.30178 | -94.72345 | 1017 ft | 12 kts | 105° |
| 2026-04-30 12:53 | 39.30152 | -94.72198 | 1017 ft | 26 kts | 102° |
| 2026-04-30 12:53 | 39.30125 | -94.72073 | 1017 ft | 6 kts | 131° |
| 2026-04-30 12:54 | 39.30103 | -94.72073 | 1017 ft | 7 kts | 214° |
| 2026-04-30 12:54 | 39.30096 | -94.72105 | 1017 ft | 8 kts | 266° |
| 2026-04-30 12:54 | 39.30091 | -94.72139 | 1017 ft | 3 kts | 255° |
| 2026-04-30 12:54 | 39.30090 | -94.72146 | 1017 ft | 0 kts | 255° |